Torvang — LDYV — position and weather

sailwx.info

Track history (hours):
 
Tides and Currents Weather Stations Pressure Air Temp Water Temp Dewpoint Dewpoint Depression Visibility Wind Speed Wind Dir Waves Ship Positions

Torvang

Last reported at 2018-Jun-21 06:30 UTC. Time now 2018-Jun-21 06:53 UTC.
Position N 62°29' E 006°23'.

Length 30 m; draft 5.2 m.

Type: Ship. MMSI: 257971000.

Date/timePositionNaut miles runAvg speedWind from/ knotsBaromVisibWave heightAir tempDewpointWater temp
2018-Jun-21 06:30N 62°29' E 006°23'0 0.0
2018-Jun-21 06:00N 62°29' E 006°23'0 0.0
2018-Jun-21 05:30N 62°29' E 006°23'0 0.0
2018-Jun-21 05:00N 62°29' E 006°23'0 0.0
2018-Jun-21 04:30N 62°29' E 006°23'0 0.0
2018-Jun-21 04:00N 62°29' E 006°23'0 0.0
2018-Jun-21 03:30N 62°29' E 006°23'0 0.0
2018-Jun-21 03:00N 62°29' E 006°23'0 0.0
2018-Jun-21 02:30N 62°29' E 006°23'0 0.0
2018-Jun-21 02:00N 62°29' E 006°23'0 0.1
2018-Jun-21 01:30N 62°29' E 006°23'6 8.7
2018-Jun-21 00:47N 62°29' E 006°10'3 9.2
2018-Jun-21 00:30N 62°28' E 006°05'2 4.0
2018-Jun-21 00:00N 62°28' E 006°09'1 1.2
2018-Jun-20 23:30N 62°28' E 006°08'0 0.9
2018-Jun-20 23:00N 62°28' E 006°09'15 1.5
2018-Jun-20 12:33N 62°29' E 006°42'0 0.0
2018-Jun-20 12:30N 62°29' E 006°42'0 0.0
2018-Jun-20 11:58N 62°29' E 006°42'0 0.0
2018-Jun-20 11:28N 62°29' E 006°42'0 0.0
2018-Jun-20 10:58N 62°29' E 006°42'0 0.0
2018-Jun-20 10:30N 62°29' E 006°42'0 0.0
2018-Jun-20 09:52N 62°29' E 006°42'0 0.0
2018-Jun-20 09:24N 62°29' E 006°42'0 0.0
2018-Jun-20 08:54N 62°29' E 006°42'0 0.0
2018-Jun-20 08:30N 62°29' E 006°42'0 0.0
2018-Jun-20 07:49N 62°29' E 006°42'0 0.0
2018-Jun-20 06:56N 62°29' E 006°42'0 0.0
2018-Jun-20 06:25N 62°29' E 006°42'0 0.0
2018-Jun-20 05:57N 62°29' E 006°42'0 0.0
2018-Jun-19 23:37N 62°29' E 006°42'0 0.0
2018-Jun-19 23:24N 62°29' E 006°42'0 0.0
2018-Jun-19 23:00N 62°29' E 006°42'0 0.0
2018-Jun-19 22:28N 62°29' E 006°42'0 0.0
2018-Jun-19 21:57N 62°29' E 006°42'0 0.0
2018-Jun-19 21:30N 62°29' E 006°42'0 0.0
2018-Jun-19 20:59N 62°29' E 006°42'18 2.8
2018-Jun-19 14:37N 62°27' E 006°03'1 8.3
2018-Jun-19 14:30N 62°28' E 006°04'6 8.4
2018-Jun-19 13:48N 62°29' E 006°17'3 8.0
2018-Jun-19 13:29N 62°29' E 006°22'0 1.0
2018-Jun-19 13:00N 62°29' E 006°23'0 0.0
2018-Jun-19 12:30N 62°29' E 006°23'0 0.0
2018-Jun-19 12:00N 62°29' E 006°23'0 0.0
2018-Jun-19 11:30N 62°29' E 006°23'0 0.0
2018-Jun-19 11:00N 62°29' E 006°23'0 0.0
2018-Jun-19 10:30N 62°29' E 006°23'0 0.0
2018-Jun-19 10:00N 62°29' E 006°23'0 0.0
2018-Jun-19 09:30N 62°29' E 006°23'0 0.0
2018-Jun-19 09:00N 62°29' E 006°23'0 0.0
2018-Jun-19 08:30N 62°29' E 006°23'0 0.0
2018-Jun-19 08:00N 62°29' E 006°23'0 0.0
2018-Jun-19 07:30N 62°29' E 006°23'0 0.0
2018-Jun-19 07:00N 62°29' E 006°23'0 0.0
2018-Jun-19 06:30N 62°29' E 006°23'0 0.0
2018-Jun-19 06:00N 62°29' E 006°23'0 0.0
2018-Jun-19 05:30N 62°29' E 006°23'0 0.0
2018-Jun-19 05:00N 62°29' E 006°23'0 0.0
2018-Jun-19 04:30N 62°29' E 006°23'0 0.0
2018-Jun-19 04:00N 62°29' E 006°23'0 0.0
2018-Jun-19 03:30N 62°29' E 006°23'0 0.0
2018-Jun-19 03:00N 62°29' E 006°23'6 5.8
2018-Jun-19 01:59N 62°29' E 006°10'2 0.1
2018-Jun-17 23:33N 62°28' E 006°06'0 9.9
2018-Jun-17 23:30N 62°29' E 006°07'510.0
2018-Jun-17 23:00N 62°29' E 006°18'3 5.5
2018-Jun-17 22:30N 62°29' E 006°24'0 0.0
2018-Jun-17 22:00N 62°29' E 006°24'0 0.0
2018-Jun-17 21:30N 62°29' E 006°24'0 0.0
2018-Jun-17 21:00N 62°29' E 006°24'0 0.1
2018-Jun-17 20:29N 62°29' E 006°24'0 0.0
2018-Jun-17 20:00N 62°29' E 006°24'0 0.0
2018-Jun-17 19:30N 62°29' E 006°24'0 0.0
2018-Jun-17 19:00N 62°29' E 006°24'0 0.0
2018-Jun-17 18:30N 62°29' E 006°24'0 0.3
2018-Jun-17 18:00N 62°29' E 006°24'0 0.1
2018-Jun-17 17:28N 62°29' E 006°23'0 0.1
2018-Jun-17 17:00N 62°29' E 006°23'0 0.1
2018-Jun-17 16:30N 62°29' E 006°23'0 0.2
2018-Jun-17 16:00N 62°29' E 006°23'6 7.5
2018-Jun-17 15:12N 62°29' E 006°10'2 0.5
2018-Jun-17 10:33N 62°28' E 006°05'1 9.3
2018-Jun-17 10:29N 62°29' E 006°07'2410.1
2018-Jun-17 08:07N 62°48' E 006°37'1810.7
2018-Jun-17 06:24N 63°01' E 007°06'511.2
2018-Jun-17 06:00N 63°03' E 007°15'611.1
2018-Jun-17 05:30N 63°05' E 007°26'611.0
2018-Jun-17 05:00N 63°08' E 007°37'611.0
2018-Jun-17 04:30N 63°11' E 007°47'510.9
2018-Jun-17 04:00N 63°14' E 007°57'611.0
2018-Jun-17 03:27N 63°17' E 008°09'511.3
2018-Jun-17 03:00N 63°20' E 008°17'29 1.1
2018-Jun-16 00:20N 63°41' E 009°01'4 8.8
2018-Jun-15 23:55N 63°41' E 009°09'4 9.4
2018-Jun-15 23:27N 63°38' E 009°17'7 8.7
2018-Jun-15 22:42N 63°38' E 009°31'24 2.2
2018-Jun-15 11:23N 63°28' E 010°22'2 5.9
2018-Jun-15 11:00N 63°27' E 010°25'0 0.0
2018-Jun-15 10:30N 63°27' E 010°25'0 0.0
2018-Jun-15 10:00N 63°27' E 010°25'0 0.0
2018-Jun-15 09:30N 63°27' E 010°25'0 0.0
2018-Jun-15 08:59N 63°27' E 010°25'0 0.0
2018-Jun-15 08:30N 63°27' E 010°25'0 0.0
2018-Jun-15 08:00N 63°27' E 010°25'0 0.0
2018-Jun-15 07:28N 63°27' E 010°25'0 0.0
2018-Jun-15 06:57N 63°27' E 010°25'0 0.0
2018-Jun-15 06:30N 63°27' E 010°25'0 0.0
2018-Jun-15 06:00N 63°27' E 010°25'0 0.0
2018-Jun-15 05:30N 63°27' E 010°25'0 0.0
2018-Jun-15 05:00N 63°27' E 010°25'0 0.1
2018-Jun-15 04:28N 63°27' E 010°26'1 1.3
2018-Jun-15 04:00N 63°27' E 010°24'23 6.4
2018-Jun-15 00:20N 63°38' E 009°39'46 9.9
2018-Jun-14 19:39N 63°16' E 008°08'1 9.8
2018-Jun-14 19:30N 63°15' E 008°06'5 9.6
2018-Jun-14 19:00N 63°13' E 007°56'5 9.5
2018-Jun-14 18:30N 63°11' E 007°47'5 9.1
2018-Jun-14 18:00N 63°07' E 007°41'3 6.4
2018-Jun-14 17:30N 63°06' E 007°48'0 0.0
2018-Jun-14 17:00N 63°06' E 007°48'0 0.0
2018-Jun-14 16:30N 63°06' E 007°48'0 0.0
2018-Jun-14 16:00N 63°06' E 007°48'0 0.0
2018-Jun-14 15:30N 63°06' E 007°48'0 0.0
2018-Jun-14 15:00N 63°06' E 007°48'0 0.0
2018-Jun-14 14:30N 63°06' E 007°48'0 0.0
2018-Jun-14 14:00N 63°06' E 007°48'0 0.0
2018-Jun-14 13:30N 63°06' E 007°48'0 0.0
2018-Jun-14 13:00N 63°06' E 007°48'0 0.0
2018-Jun-14 12:30N 63°06' E 007°48'0 0.0
2018-Jun-14 12:00N 63°06' E 007°48'0 0.0
2018-Jun-14 11:30N 63°06' E 007°48'0 0.0
2018-Jun-14 11:00N 63°06' E 007°48'0 0.0
2018-Jun-14 10:30N 63°06' E 007°48'0 0.0
2018-Jun-14 10:00N 63°06' E 007°48'0 0.0
2018-Jun-14 09:30N 63°06' E 007°48'0 0.0
2018-Jun-14 09:00N 63°06' E 007°48'0 0.0
2018-Jun-14 08:30N 63°06' E 007°48'0 0.0
2018-Jun-14 08:00N 63°06' E 007°48'0 0.0
2018-Jun-14 07:30N 63°06' E 007°48'0 0.0
2018-Jun-14 07:00N 63°06' E 007°48'3 6.0
2018-Jun-14 06:30N 63°07' E 007°41'5 9.4
2018-Jun-14 06:00N 63°06' E 007°31'510.9
2018-Jun-14 05:30N 63°03' E 007°20'510.6
2018-Jun-14 05:00N 63°02' E 007°09'11 9.2
2018-Jun-14 03:50N 62°55' E 006°51'410.9
2018-Jun-14 03:29N 62°52' E 006°57'25 1.4
2018-Jun-13 09:52N 62°35' E 006°15'410.1
2018-Jun-13 09:29N 62°32' E 006°10'4 7.2
2018-Jun-13 08:53N 62°29' E 006°16'3 9.3
2018-Jun-13 08:30N 62°29' E 006°24'0 0.3
2018-Jun-13 07:59N 62°29' E 006°24'0 0.0
2018-Jun-13 07:30N 62°29' E 006°24'0 0.0
2018-Jun-13 07:00N 62°29' E 006°24'0 0.0
2018-Jun-13 06:30N 62°29' E 006°24'0 0.0
2018-Jun-13 05:59N 62°29' E 006°24'0 0.0
2018-Jun-13 05:30N 62°29' E 006°24'0 0.0
2018-Jun-13 05:00N 62°29' E 006°24'0 0.0
2018-Jun-13 04:30N 62°29' E 006°24'0 0.0
2018-Jun-13 04:00N 62°29' E 006°24'0 0.0
2018-Jun-13 03:21N 62°29' E 006°24'0 0.0
2018-Jun-13 02:58N 62°29' E 006°24'0 0.0
2018-Jun-13 02:30N 62°29' E 006°24'0 0.0
2018-Jun-13 01:55N 62°29' E 006°24'0 0.0
2018-Jun-13 01:30N 62°29' E 006°24'0 0.0
2018-Jun-13 01:00N 62°29' E 006°24'0 0.0
2018-Jun-13 00:30N 62°29' E 006°24'0 0.0
2018-Jun-13 00:00N 62°29' E 006°24'0 0.0
2018-Jun-12 23:30N 62°29' E 006°24'0 0.0
2018-Jun-12 23:00N 62°29' E 006°24'0 0.0
2018-Jun-12 22:28N 62°29' E 006°24'0 0.0
2018-Jun-12 22:00N 62°29' E 006°24'0 0.0
2018-Jun-12 21:30N 62°29' E 006°24'0 0.1
2018-Jun-12 21:00N 62°29' E 006°24'0 0.0
2018-Jun-12 20:30N 62°29' E 006°24'0 0.0
2018-Jun-12 19:59N 62°29' E 006°24'0 0.0
2018-Jun-12 19:30N 62°29' E 006°24'0 0.0
2018-Jun-12 18:59N 62°29' E 006°24'0 0.0
2018-Jun-12 18:30N 62°29' E 006°24'0 0.0
2018-Jun-12 18:00N 62°29' E 006°24'0 0.0
2018-Jun-12 17:30N 62°29' E 006°24'0 0.0
2018-Jun-12 16:59N 62°29' E 006°24'1 2.4
2018-Jun-12 16:28N 62°29' E 006°21'5 8.7
2018-Jun-12 15:56N 62°29' E 006°11'3 7.0
2018-Jun-12 15:30N 62°32' E 006°13'2 3.9
2018-Jun-12 15:00N 62°34' E 006°16'0 0.0
2018-Jun-12 14:30N 62°34' E 006°16'0 0.0
2018-Jun-12 14:00N 62°34' E 006°16'0 0.0
2018-Jun-12 13:30N 62°34' E 006°16'0 0.0
2018-Jun-12 12:51N 62°34' E 006°16'0 0.0
2018-Jun-12 12:30N 62°34' E 006°16'1 1.7
2018-Jun-12 12:00N 62°33' E 006°14'5 9.9
2018-Jun-12 11:30N 62°29' E 006°08'2 4.4
2018-Jun-12 11:00N 62°27' E 006°10'2 2.8
2018-Jun-12 10:12N 62°26' E 006°14'0 0.0
2018-Jun-12 10:00N 62°26' E 006°14'0 0.0
2018-Jun-12 09:13N 62°26' E 006°14'0 0.0
2018-Jun-12 07:28N 62°26' E 006°15'0 0.0
2018-Jun-12 06:59N 62°26' E 006°14'0 0.0
2018-Jun-12 06:29N 62°26' E 006°14'1 0.1
2018-Jun-11 23:27N 62°27' E 006°14'3 7.1
2018-Jun-11 23:00N 62°27' E 006°08'3 6.0
2018-Jun-11 22:30N 62°30' E 006°09'5 9.0
2018-Jun-11 22:00N 62°34' E 006°12'24 9.4
2018-Jun-11 19:27N 62°52' E 006°48'4 9.2
2018-Jun-11 19:00N 62°53' E 006°57'0 0.3
2018-Jun-11 18:30N 62°53' E 006°57'0 0.0
2018-Jun-11 17:59N 62°53' E 006°57'0 0.0
2018-Jun-11 17:21N 62°53' E 006°57'0 0.0
2018-Jun-11 16:51N 62°53' E 006°57'0 0.0
2018-Jun-11 16:24N 62°53' E 006°57'0 0.0
2018-Jun-11 15:57N 62°53' E 006°57'1 2.5
2018-Jun-11 15:30N 62°53' E 006°55'10 8.3
2018-Jun-11 14:21N 63°01' E 007°06'411.1
2018-Jun-11 14:00N 63°03' E 007°14'611.1
2018-Jun-11 13:30N 63°05' E 007°26'511.0
2018-Jun-11 13:00N 63°07' E 007°36'511.0
2018-Jun-11 12:30N 63°08' E 007°48'611.1
2018-Jun-11 12:00N 63°08' E 008°00'510.2
2018-Jun-11 11:28N 63°04' E 008°10'510.8
2018-Jun-11 11:00N 63°00' E 008°16'  
Track history (hours):
 
Tides and Currents Weather Stations Pressure Air Temp Water Temp Dewpoint Dewpoint Depression Visibility Wind Speed Wind Dir Waves Ship Positions

Torvang

Last reported at 2018-Jun-21 06:30 UTC. Time now 2018-Jun-21 06:53 UTC.
Position N 62°29' E 006°23'.

Length 30 m; draft 5.2 m.

Type: Ship. MMSI: 257971000.

Date/timePositionNaut miles runAvg speedWind from/ knotsBaromVisibWave heightAir tempDewpointWater temp
2018-Jun-21 06:30N 62°29' E 006°23'0 0.0
2018-Jun-21 06:00N 62°29' E 006°23'0 0.0
2018-Jun-21 05:30N 62°29' E 006°23'0 0.0
2018-Jun-21 05:00N 62°29' E 006°23'0 0.0
2018-Jun-21 04:30N 62°29' E 006°23'0 0.0
2018-Jun-21 04:00N 62°29' E 006°23'0 0.0
2018-Jun-21 03:30N 62°29' E 006°23'0 0.0
2018-Jun-21 03:00N 62°29' E 006°23'0 0.0
2018-Jun-21 02:30N 62°29' E 006°23'0 0.0
2018-Jun-21 02:00N 62°29' E 006°23'0 0.1
2018-Jun-21 01:30N 62°29' E 006°23'6 8.7
2018-Jun-21 00:47N 62°29' E 006°10'3 9.2
2018-Jun-21 00:30N 62°28' E 006°05'2 4.0
2018-Jun-21 00:00N 62°28' E 006°09'1 1.2
2018-Jun-20 23:30N 62°28' E 006°08'0 0.9
2018-Jun-20 23:00N 62°28' E 006°09'15 1.5
2018-Jun-20 12:33N 62°29' E 006°42'0 0.0
2018-Jun-20 12:30N 62°29' E 006°42'0 0.0
2018-Jun-20 11:58N 62°29' E 006°42'0 0.0
2018-Jun-20 11:28N 62°29' E 006°42'0 0.0
2018-Jun-20 10:58N 62°29' E 006°42'0 0.0
2018-Jun-20 10:30N 62°29' E 006°42'0 0.0
2018-Jun-20 09:52N 62°29' E 006°42'0 0.0
2018-Jun-20 09:24N 62°29' E 006°42'0 0.0
2018-Jun-20 08:54N 62°29' E 006°42'0 0.0
2018-Jun-20 08:30N 62°29' E 006°42'0 0.0
2018-Jun-20 07:49N 62°29' E 006°42'0 0.0
2018-Jun-20 06:56N 62°29' E 006°42'0 0.0
2018-Jun-20 06:25N 62°29' E 006°42'0 0.0
2018-Jun-20 05:57N 62°29' E 006°42'0 0.0
2018-Jun-19 23:37N 62°29' E 006°42'0 0.0
2018-Jun-19 23:24N 62°29' E 006°42'0 0.0
2018-Jun-19 23:00N 62°29' E 006°42'0 0.0
2018-Jun-19 22:28N 62°29' E 006°42'0 0.0
2018-Jun-19 21:57N 62°29' E 006°42'0 0.0
2018-Jun-19 21:30N 62°29' E 006°42'0 0.0
2018-Jun-19 20:59N 62°29' E 006°42'18 2.8
2018-Jun-19 14:37N 62°27' E 006°03'1 8.3
2018-Jun-19 14:30N 62°28' E 006°04'6 8.4
2018-Jun-19 13:48N 62°29' E 006°17'3 8.0
2018-Jun-19 13:29N 62°29' E 006°22'0 1.0
2018-Jun-19 13:00N 62°29' E 006°23'0 0.0
2018-Jun-19 12:30N 62°29' E 006°23'0 0.0
2018-Jun-19 12:00N 62°29' E 006°23'0 0.0
2018-Jun-19 11:30N 62°29' E 006°23'0 0.0
2018-Jun-19 11:00N 62°29' E 006°23'0 0.0
2018-Jun-19 10:30N 62°29' E 006°23'0 0.0
2018-Jun-19 10:00N 62°29' E 006°23'0 0.0
2018-Jun-19 09:30N 62°29' E 006°23'0 0.0
2018-Jun-19 09:00N 62°29' E 006°23'0 0.0
2018-Jun-19 08:30N 62°29' E 006°23'0 0.0
2018-Jun-19 08:00N 62°29' E 006°23'0 0.0
2018-Jun-19 07:30N 62°29' E 006°23'0 0.0
2018-Jun-19 07:00N 62°29' E 006°23'0 0.0
2018-Jun-19 06:30N 62°29' E 006°23'0 0.0
2018-Jun-19 06:00N 62°29' E 006°23'0 0.0
2018-Jun-19 05:30N 62°29' E 006°23'0 0.0
2018-Jun-19 05:00N 62°29' E 006°23'0 0.0
2018-Jun-19 04:30N 62°29' E 006°23'0 0.0
2018-Jun-19 04:00N 62°29' E 006°23'0 0.0
2018-Jun-19 03:30N 62°29' E 006°23'0 0.0
2018-Jun-19 03:00N 62°29' E 006°23'6 5.8
2018-Jun-19 01:59N 62°29' E 006°10'2 0.1
2018-Jun-17 23:33N 62°28' E 006°06'0 9.9
2018-Jun-17 23:30N 62°29' E 006°07'510.0
2018-Jun-17 23:00N 62°29' E 006°18'3 5.5
2018-Jun-17 22:30N 62°29' E 006°24'0 0.0
2018-Jun-17 22:00N 62°29' E 006°24'0 0.0
2018-Jun-17 21:30N 62°29' E 006°24'0 0.0
2018-Jun-17 21:00N 62°29' E 006°24'0 0.1
2018-Jun-17 20:29N 62°29' E 006°24'0 0.0
2018-Jun-17 20:00N 62°29' E 006°24'0 0.0
2018-Jun-17 19:30N 62°29' E 006°24'0 0.0
2018-Jun-17 19:00N 62°29' E 006°24'0 0.0
2018-Jun-17 18:30N 62°29' E 006°24'0 0.3
2018-Jun-17 18:00N 62°29' E 006°24'0 0.1
2018-Jun-17 17:28N 62°29' E 006°23'0 0.1
2018-Jun-17 17:00N 62°29' E 006°23'0 0.1
2018-Jun-17 16:30N 62°29' E 006°23'0 0.2
2018-Jun-17 16:00N 62°29' E 006°23'6 7.5
2018-Jun-17 15:12N 62°29' E 006°10'2 0.5
2018-Jun-17 10:33N 62°28' E 006°05'1 9.3
2018-Jun-17 10:29N 62°29' E 006°07'2410.1
2018-Jun-17 08:07N 62°48' E 006°37'1810.7
2018-Jun-17 06:24N 63°01' E 007°06'511.2
2018-Jun-17 06:00N 63°03' E 007°15'611.1
2018-Jun-17 05:30N 63°05' E 007°26'611.0
2018-Jun-17 05:00N 63°08' E 007°37'611.0
2018-Jun-17 04:30N 63°11' E 007°47'510.9
2018-Jun-17 04:00N 63°14' E 007°57'611.0
2018-Jun-17 03:27N 63°17' E 008°09'511.3
2018-Jun-17 03:00N 63°20' E 008°17'29 1.1
2018-Jun-16 00:20N 63°41' E 009°01'4 8.8
2018-Jun-15 23:55N 63°41' E 009°09'4 9.4
2018-Jun-15 23:27N 63°38' E 009°17'7 8.7
2018-Jun-15 22:42N 63°38' E 009°31'24 2.2
2018-Jun-15 11:23N 63°28' E 010°22'2 5.9
2018-Jun-15 11:00N 63°27' E 010°25'0 0.0
2018-Jun-15 10:30N 63°27' E 010°25'0 0.0
2018-Jun-15 10:00N 63°27' E 010°25'0 0.0
2018-Jun-15 09:30N 63°27' E 010°25'0 0.0
2018-Jun-15 08:59N 63°27' E 010°25'0 0.0
2018-Jun-15 08:30N 63°27' E 010°25'0 0.0
2018-Jun-15 08:00N 63°27' E 010°25'0 0.0
2018-Jun-15 07:28N 63°27' E 010°25'0 0.0
2018-Jun-15 06:57N 63°27' E 010°25'0 0.0
2018-Jun-15 06:30N 63°27' E 010°25'0 0.0
2018-Jun-15 06:00N 63°27' E 010°25'0 0.0
2018-Jun-15 05:30N 63°27' E 010°25'0 0.0
2018-Jun-15 05:00N 63°27' E 010°25'0 0.1
2018-Jun-15 04:28N 63°27' E 010°26'1 1.3
2018-Jun-15 04:00N 63°27' E 010°24'23 6.4
2018-Jun-15 00:20N 63°38' E 009°39'46 9.9
2018-Jun-14 19:39N 63°16' E 008°08'1 9.8
2018-Jun-14 19:30N 63°15' E 008°06'5 9.6
2018-Jun-14 19:00N 63°13' E 007°56'5 9.5
2018-Jun-14 18:30N 63°11' E 007°47'5 9.1
2018-Jun-14 18:00N 63°07' E 007°41'3 6.4
2018-Jun-14 17:30N 63°06' E 007°48'0 0.0
2018-Jun-14 17:00N 63°06' E 007°48'0 0.0
2018-Jun-14 16:30N 63°06' E 007°48'0 0.0
2018-Jun-14 16:00N 63°06' E 007°48'0 0.0
2018-Jun-14 15:30N 63°06' E 007°48'0 0.0
2018-Jun-14 15:00N 63°06' E 007°48'0 0.0
2018-Jun-14 14:30N 63°06' E 007°48'0 0.0
2018-Jun-14 14:00N 63°06' E 007°48'0 0.0
2018-Jun-14 13:30N 63°06' E 007°48'0 0.0
2018-Jun-14 13:00N 63°06' E 007°48'0 0.0
2018-Jun-14 12:30N 63°06' E 007°48'0 0.0
2018-Jun-14 12:00N 63°06' E 007°48'0 0.0
2018-Jun-14 11:30N 63°06' E 007°48'0 0.0
2018-Jun-14 11:00N 63°06' E 007°48'0 0.0
2018-Jun-14 10:30N 63°06' E 007°48'0 0.0
2018-Jun-14 10:00N 63°06' E 007°48'0 0.0
2018-Jun-14 09:30N 63°06' E 007°48'0 0.0
2018-Jun-14 09:00N 63°06' E 007°48'0 0.0
2018-Jun-14 08:30N 63°06' E 007°48'0 0.0
2018-Jun-14 08:00N 63°06' E 007°48'0 0.0
2018-Jun-14 07:30N 63°06' E 007°48'0 0.0
2018-Jun-14 07:00N 63°06' E 007°48'3 6.0
2018-Jun-14 06:30N 63°07' E 007°41'5 9.4
2018-Jun-14 06:00N 63°06' E 007°31'510.9
2018-Jun-14 05:30N 63°03' E 007°20'510.6
2018-Jun-14 05:00N 63°02' E 007°09'11 9.2
2018-Jun-14 03:50N 62°55' E 006°51'410.9
2018-Jun-14 03:29N 62°52' E 006°57'25 1.4
2018-Jun-13 09:52N 62°35' E 006°15'410.1
2018-Jun-13 09:29N 62°32' E 006°10'4 7.2
2018-Jun-13 08:53N 62°29' E 006°16'3 9.3
2018-Jun-13 08:30N 62°29' E 006°24'0 0.3
2018-Jun-13 07:59N 62°29' E 006°24'0 0.0
2018-Jun-13 07:30N 62°29' E 006°24'0 0.0
2018-Jun-13 07:00N 62°29' E 006°24'0 0.0
2018-Jun-13 06:30N 62°29' E 006°24'0 0.0
2018-Jun-13 05:59N 62°29' E 006°24'0 0.0
2018-Jun-13 05:30N 62°29' E 006°24'0 0.0
2018-Jun-13 05:00N 62°29' E 006°24'0 0.0
2018-Jun-13 04:30N 62°29' E 006°24'0 0.0
2018-Jun-13 04:00N 62°29' E 006°24'0 0.0
2018-Jun-13 03:21N 62°29' E 006°24'0 0.0
2018-Jun-13 02:58N 62°29' E 006°24'0 0.0
2018-Jun-13 02:30N 62°29' E 006°24'0 0.0
2018-Jun-13 01:55N 62°29' E 006°24'0 0.0
2018-Jun-13 01:30N 62°29' E 006°24'0 0.0
2018-Jun-13 01:00N 62°29' E 006°24'0 0.0
2018-Jun-13 00:30N 62°29' E 006°24'0 0.0
2018-Jun-13 00:00N 62°29' E 006°24'0 0.0
2018-Jun-12 23:30N 62°29' E 006°24'0 0.0
2018-Jun-12 23:00N 62°29' E 006°24'0 0.0
2018-Jun-12 22:28N 62°29' E 006°24'0 0.0
2018-Jun-12 22:00N 62°29' E 006°24'0 0.0
2018-Jun-12 21:30N 62°29' E 006°24'0 0.1
2018-Jun-12 21:00N 62°29' E 006°24'0 0.0
2018-Jun-12 20:30N 62°29' E 006°24'0 0.0
2018-Jun-12 19:59N 62°29' E 006°24'0 0.0
2018-Jun-12 19:30N 62°29' E 006°24'0 0.0
2018-Jun-12 18:59N 62°29' E 006°24'0 0.0
2018-Jun-12 18:30N 62°29' E 006°24'0 0.0
2018-Jun-12 18:00N 62°29' E 006°24'0 0.0
2018-Jun-12 17:30N 62°29' E 006°24'0 0.0
2018-Jun-12 16:59N 62°29' E 006°24'1 2.4
2018-Jun-12 16:28N 62°29' E 006°21'5 8.7
2018-Jun-12 15:56N 62°29' E 006°11'3 7.0
2018-Jun-12 15:30N 62°32' E 006°13'2 3.9
2018-Jun-12 15:00N 62°34' E 006°16'0 0.0
2018-Jun-12 14:30N 62°34' E 006°16'0 0.0
2018-Jun-12 14:00N 62°34' E 006°16'0 0.0
2018-Jun-12 13:30N 62°34' E 006°16'0 0.0
2018-Jun-12 12:51N 62°34' E 006°16'0 0.0
2018-Jun-12 12:30N 62°34' E 006°16'1 1.7
2018-Jun-12 12:00N 62°33' E 006°14'5 9.9
2018-Jun-12 11:30N 62°29' E 006°08'2 4.4
2018-Jun-12 11:00N 62°27' E 006°10'2 2.8
2018-Jun-12 10:12N 62°26' E 006°14'0 0.0
2018-Jun-12 10:00N 62°26' E 006°14'0 0.0
2018-Jun-12 09:13N 62°26' E 006°14'0 0.0
2018-Jun-12 07:28N 62°26' E 006°15'0 0.0
2018-Jun-12 06:59N 62°26' E 006°14'0 0.0
2018-Jun-12 06:29N 62°26' E 006°14'1 0.1
2018-Jun-11 23:27N 62°27' E 006°14'3 7.1
2018-Jun-11 23:00N 62°27' E 006°08'3 6.0
2018-Jun-11 22:30N 62°30' E 006°09'5 9.0
2018-Jun-11 22:00N 62°34' E 006°12'24 9.4
2018-Jun-11 19:27N 62°52' E 006°48'4 9.2
2018-Jun-11 19:00N 62°53' E 006°57'0 0.3
2018-Jun-11 18:30N 62°53' E 006°57'0 0.0
2018-Jun-11 17:59N 62°53' E 006°57'0 0.0
2018-Jun-11 17:21N 62°53' E 006°57'0 0.0
2018-Jun-11 16:51N 62°53' E 006°57'0 0.0
2018-Jun-11 16:24N 62°53' E 006°57'0 0.0
2018-Jun-11 15:57N 62°53' E 006°57'1 2.5
2018-Jun-11 15:30N 62°53' E 006°55'10 8.3
2018-Jun-11 14:21N 63°01' E 007°06'411.1
2018-Jun-11 14:00N 63°03' E 007°14'611.1
2018-Jun-11 13:30N 63°05' E 007°26'511.0
2018-Jun-11 13:00N 63°07' E 007°36'511.0
2018-Jun-11 12:30N 63°08' E 007°48'611.1
2018-Jun-11 12:00N 63°08' E 008°00'510.2
2018-Jun-11 11:28N 63°04' E 008°10'510.8
2018-Jun-11 11:00N 63°00' E 008°16'  

Dump ship's entire track history